JBU445 KBOS-KJFK
Flight info
| Callsign | JBU445 |
|---|---|
| Flight time | 0h 47m |
| Altitude | 20000 |
| Route | SSOXS7 SSOXS BUZRD SEY PARCH3 |
| Aircraft | A20N/M-SDE2E3FGHIRWXY/LB1 |
Departure
| Time | 2026-05-06 23:27 |
|---|---|
| Airport | Boston Logan International Airport (KBOS) |
Arrival
| Time | 2026-05-07 00:14 |
|---|---|
| Airport | John F. Kennedy International Airport (KJFK) |
| Time | Latitude | Longitude | Altitude | Speed | Heading |
|---|---|---|---|---|---|
| 2026-05-06 22:51 | 42.36571 | -71.01667 | 20 ft | 0 kts | 333° |
| 2026-05-06 23:15 | 42.36562 | -71.01660 | 20 ft | 2 kts | 334° |
| 2026-05-06 23:15 | 42.36547 | -71.01651 | 22 ft | 2 kts | 335° |
| 2026-05-06 23:15 | 42.36532 | -71.01641 | 20 ft | 2 kts | 336° |
| 2026-05-06 23:16 | 42.36517 | -71.01632 | 22 ft | 2 kts | 342° |
| 2026-05-06 23:16 | 42.36501 | -71.01633 | 18 ft | 2 kts | 27° |
| 2026-05-06 23:16 | 42.36487 | -71.01645 | 26 ft | 2 kts | 39° |
| 2026-05-06 23:16 | 42.36474 | -71.01660 | 17 ft | 2 kts | 46° |
| 2026-05-06 23:17 | 42.36466 | -71.01673 | 19 ft | 1 kts | 53° |
| 2026-05-06 23:17 | 42.36465 | -71.01675 | 18 ft | 0 kts | 55° |
| 2026-05-06 23:18 | 42.36468 | -71.01669 | 21 ft | 2 kts | 56° |
| 2026-05-06 23:18 | 42.36469 | -71.01634 | 18 ft | 6 kts | 108° |
| 2026-05-06 23:19 | 42.36456 | -71.01605 | 18 ft | 0 kts | 122° |
| 2026-05-06 23:20 | 42.36455 | -71.01603 | 18 ft | 1 kts | 122° |
| 2026-05-06 23:20 | 42.36443 | -71.01577 | 17 ft | 5 kts | 122° |
| 2026-05-06 23:20 | 42.36414 | -71.01515 | 16 ft | 10 kts | 122° |
| 2026-05-06 23:21 | 42.36376 | -71.01408 | 15 ft | 15 kts | 112° |
| 2026-05-06 23:21 | 42.36394 | -71.01303 | 16 ft | 14 kts | 21° |
| 2026-05-06 23:21 | 42.36504 | -71.01250 | 14 ft | 19 kts | 20° |
| 2026-05-06 23:21 | 42.36635 | -71.01187 | 17 ft | 21 kts | 19° |
| 2026-05-06 23:22 | 42.36783 | -71.01146 | 15 ft | 24 kts | 339° |
| 2026-05-06 23:22 | 42.36892 | -71.01218 | 12 ft | 16 kts | 30° |
| 2026-05-06 23:22 | 42.36979 | -71.01116 | 14 ft | 18 kts | 34° |
| 2026-05-06 23:22 | 42.37100 | -71.01036 | 11 ft | 21 kts | 26° |
| 2026-05-06 23:23 | 42.37235 | -71.00946 | 11 ft | 23 kts | 26° |
| 2026-05-06 23:23 | 42.37371 | -71.00870 | 9 ft | 11 kts | 19° |
| 2026-05-06 23:23 | 42.37436 | -71.00839 | 12 ft | 9 kts | 19° |
| 2026-05-06 23:23 | 42.37493 | -71.00811 | 14 ft | 9 kts | 20° |
| 2026-05-06 23:24 | 42.37555 | -71.00782 | 15 ft | 11 kts | 20° |
| 2026-05-06 23:24 | 42.37654 | -71.00733 | 19 ft | 20 kts | 19° |
| 2026-05-06 23:24 | 42.37759 | -71.00683 | 23 ft | 11 kts | 20° |
| 2026-05-06 23:24 | 42.37814 | -71.00655 | 25 ft | 9 kts | 23° |
| 2026-05-06 23:25 | 42.37829 | -71.00643 | 25 ft | 1 kts | 35° |
| 2026-05-06 23:25 | 42.37842 | -71.00622 | 23 ft | 5 kts | 60° |
| 2026-05-06 23:25 | 42.37835 | -71.00569 | 23 ft | 6 kts | 110° |
| 2026-05-06 23:25 | 42.37812 | -71.00490 | 21 ft | 11 kts | 124° |
| 2026-05-06 23:26 | 42.37756 | -71.00487 | 20 ft | 1 kts | 200° |
| 2026-05-06 23:26 | 42.37754 | -71.00488 | 20 ft | 1 kts | 200° |
| 2026-05-06 23:26 | 42.37612 | -71.00557 | 19 ft | 56 kts | 200° |
| 2026-05-06 23:27 | 42.37031 | -71.00839 | 10 ft | 117 kts | 200° |
| 2026-05-06 23:27 | 42.36188 | -71.01247 | 358 ft | 128 kts | 198° |
| 2026-05-06 23:27 | 42.35348 | -71.01649 | 976 ft | 130 kts | 199° |
| 2026-05-06 23:27 | 42.34412 | -71.01730 | 1424 ft | 146 kts | 172° |
| 2026-05-06 23:28 | 42.33462 | -71.00992 | 1831 ft | 177 kts | 139° |
| 2026-05-06 23:28 | 42.32643 | -70.99570 | 2199 ft | 205 kts | 135° |
| 2026-05-06 23:28 | 42.31746 | -70.97927 | 2672 ft | 230 kts | 132° |
| 2026-05-06 23:28 | 42.31148 | -70.95831 | 3534 ft | 250 kts | 98° |
| 2026-05-06 23:29 | 42.31286 | -70.93453 | 4479 ft | 261 kts | 81° |
| 2026-05-06 23:29 | 42.31674 | -70.90955 | 5139 ft | 283 kts | 77° |
| 2026-05-06 23:29 | 42.32139 | -70.88309 | 5763 ft | 303 kts | 77° |
| 2026-05-06 23:29 | 42.32604 | -70.85486 | 6606 ft | 312 kts | 79° |
| 2026-05-06 23:30 | 42.33039 | -70.82589 | 7573 ft | 316 kts | 83° |
| 2026-05-06 23:30 | 42.33042 | -70.79632 | 8497 ft | 317 kts | 105° |
| 2026-05-06 23:30 | 42.32303 | -70.76865 | 9438 ft | 315 kts | 121° |
| 2026-05-06 23:30 | 42.31362 | -70.74163 | 10340 ft | 321 kts | 121° |
| 2026-05-06 23:31 | 42.30367 | -70.71356 | 10824 ft | 341 kts | 125° |
| 2026-05-06 23:31 | 42.28884 | -70.68823 | 11185 ft | 348 kts | 147° |
| 2026-05-06 23:31 | 42.26822 | -70.67215 | 11928 ft | 338 kts | 167° |
| 2026-05-06 23:31 | 42.24593 | -70.66181 | 12880 ft | 340 kts | 169° |
| 2026-05-06 23:32 | 42.22348 | -70.65149 | 13797 ft | 343 kts | 169° |
| 2026-05-06 23:32 | 42.20070 | -70.64105 | 14594 ft | 347 kts | 169° |
| 2026-05-06 23:32 | 42.17775 | -70.63056 | 15358 ft | 351 kts | 169° |
| 2026-05-06 23:32 | 42.15427 | -70.62182 | 16108 ft | 346 kts | 179° |
| 2026-05-06 23:33 | 42.13052 | -70.62051 | 16896 ft | 338 kts | 192° |
| 2026-05-06 23:33 | 42.10765 | -70.62662 | 17640 ft | 333 kts | 204° |
| 2026-05-06 23:33 | 42.08558 | -70.63656 | 18367 ft | 337 kts | 204° |
| 2026-05-06 23:33 | 42.06317 | -70.64659 | 18976 ft | 342 kts | 204° |
| 2026-05-06 23:34 | 42.04041 | -70.65669 | 19535 ft | 347 kts | 204° |
| 2026-05-06 23:34 | 42.01733 | -70.66688 | 19764 ft | 350 kts | 204° |
| 2026-05-06 23:34 | 41.99412 | -70.67707 | 19838 ft | 350 kts | 204° |
| 2026-05-06 23:34 | 41.97127 | -70.68709 | 19815 ft | 350 kts | 204° |
| 2026-05-06 23:35 | 41.94807 | -70.69727 | 19844 ft | 351 kts | 204° |
| 2026-05-06 23:35 | 41.92480 | -70.70748 | 19842 ft | 351 kts | 204° |
| 2026-05-06 23:35 | 41.90152 | -70.71769 | 19841 ft | 351 kts | 204° |
| 2026-05-06 23:35 | 41.87826 | -70.72789 | 19842 ft | 351 kts | 204° |
| 2026-05-06 23:36 | 41.85504 | -70.73807 | 19843 ft | 351 kts | 205° |
| 2026-05-06 23:36 | 41.83248 | -70.74995 | 19840 ft | 347 kts | 211° |
| 2026-05-06 23:36 | 41.81131 | -70.76498 | 19845 ft | 344 kts | 214° |
| 2026-05-06 23:36 | 41.79050 | -70.78083 | 19814 ft | 344 kts | 214° |
| 2026-05-06 23:37 | 41.76958 | -70.79664 | 19844 ft | 346 kts | 214° |
| 2026-05-06 23:37 | 41.74861 | -70.81243 | 19852 ft | 345 kts | 214° |
| 2026-05-06 23:37 | 41.72765 | -70.82817 | 19850 ft | 345 kts | 214° |
| 2026-05-06 23:37 | 41.70665 | -70.84392 | 19852 ft | 346 kts | 214° |
| 2026-05-06 23:38 | 41.68567 | -70.85964 | 19852 ft | 345 kts | 214° |
| 2026-05-06 23:38 | 41.66474 | -70.87532 | 19850 ft | 345 kts | 214° |
| 2026-05-06 23:38 | 41.64377 | -70.89102 | 19858 ft | 344 kts | 214° |
| 2026-05-06 23:38 | 41.62294 | -70.90658 | 19850 ft | 343 kts | 214° |
| 2026-05-06 23:39 | 41.60234 | -70.92198 | 19844 ft | 344 kts | 215° |
| 2026-05-06 23:39 | 41.58140 | -70.93763 | 19851 ft | 345 kts | 215° |
| 2026-05-06 23:39 | 41.56105 | -70.95430 | 19853 ft | 341 kts | 220° |
| 2026-05-06 23:39 | 41.54257 | -70.97392 | 19855 ft | 338 kts | 226° |
| 2026-05-06 23:40 | 41.52617 | -70.99617 | 19857 ft | 335 kts | 232° |
| 2026-05-06 23:40 | 41.51142 | -71.02027 | 19858 ft | 334 kts | 234° |
| 2026-05-06 23:40 | 41.49676 | -71.04438 | 19858 ft | 335 kts | 233° |
| 2026-05-06 23:40 | 41.48203 | -71.06842 | 19872 ft | 334 kts | 233° |
| 2026-05-06 23:41 | 41.46731 | -71.09237 | 19873 ft | 334 kts | 233° |
| 2026-05-06 23:41 | 41.45254 | -71.11637 | 19873 ft | 334 kts | 233° |
| 2026-05-06 23:41 | 41.43771 | -71.14041 | 19859 ft | 335 kts | 234° |
| 2026-05-06 23:41 | 41.42289 | -71.16446 | 19871 ft | 336 kts | 234° |
| 2026-05-06 23:42 | 41.40807 | -71.18848 | 19871 ft | 335 kts | 234° |
| 2026-05-06 23:42 | 41.39327 | -71.21246 | 19871 ft | 335 kts | 234° |
| 2026-05-06 23:42 | 41.37844 | -71.23648 | 19870 ft | 335 kts | 234° |
| 2026-05-06 23:42 | 41.36359 | -71.26050 | 19866 ft | 335 kts | 234° |
| 2026-05-06 23:43 | 41.34875 | -71.28448 | 19868 ft | 335 kts | 234° |
| 2026-05-06 23:43 | 41.33431 | -71.30778 | 19867 ft | 323 kts | 234° |
| 2026-05-06 23:43 | 41.32040 | -71.33015 | 19869 ft | 305 kts | 234° |
| 2026-05-06 23:43 | 41.30690 | -71.35191 | 19871 ft | 308 kts | 234° |
| 2026-05-06 23:44 | 41.29321 | -71.37403 | 19868 ft | 310 kts | 234° |
| 2026-05-06 23:44 | 41.27951 | -71.39614 | 19869 ft | 309 kts | 234° |
| 2026-05-06 23:44 | 41.26582 | -71.41817 | 19866 ft | 309 kts | 234° |
| 2026-05-06 23:44 | 41.25209 | -71.44025 | 19869 ft | 309 kts | 234° |
| 2026-05-06 23:45 | 41.23839 | -71.46227 | 19870 ft | 309 kts | 234° |
| 2026-05-06 23:45 | 41.22469 | -71.48426 | 19870 ft | 309 kts | 234° |
| 2026-05-06 23:45 | 41.21098 | -71.50626 | 19870 ft | 309 kts | 234° |
| 2026-05-06 23:45 | 41.19725 | -71.52827 | 19870 ft | 309 kts | 234° |
| 2026-05-06 23:46 | 41.18366 | -71.55040 | 19870 ft | 308 kts | 237° |
| 2026-05-06 23:46 | 41.17259 | -71.57452 | 19875 ft | 305 kts | 245° |
| 2026-05-06 23:46 | 41.16504 | -71.60069 | 19869 ft | 304 kts | 254° |
| 2026-05-06 23:46 | 41.16088 | -71.62826 | 19868 ft | 305 kts | 259° |
| 2026-05-06 23:47 | 41.15759 | -71.65614 | 19869 ft | 305 kts | 259° |
| 2026-05-06 23:47 | 41.15418 | -71.68399 | 19811 ft | 306 kts | 259° |
| 2026-05-06 23:47 | 41.15074 | -71.71186 | 19574 ft | 306 kts | 259° |
| 2026-05-06 23:47 | 41.14728 | -71.73966 | 19339 ft | 305 kts | 258° |
| 2026-05-06 23:48 | 41.14383 | -71.76737 | 19083 ft | 304 kts | 259° |
| 2026-05-06 23:48 | 41.14041 | -71.79475 | 18853 ft | 305 kts | 258° |
| 2026-05-06 23:48 | 41.13695 | -71.82252 | 18671 ft | 304 kts | 258° |
| 2026-05-06 23:48 | 41.13349 | -71.85017 | 18555 ft | 304 kts | 258° |
| 2026-05-06 23:49 | 41.13001 | -71.87790 | 18443 ft | 305 kts | 258° |
| 2026-05-06 23:49 | 41.12653 | -71.90561 | 18328 ft | 305 kts | 258° |
| 2026-05-06 23:49 | 41.12303 | -71.93336 | 18226 ft | 304 kts | 258° |
| 2026-05-06 23:49 | 41.11954 | -71.96106 | 18102 ft | 304 kts | 258° |
| 2026-05-06 23:50 | 41.11604 | -71.98874 | 17972 ft | 304 kts | 258° |
| 2026-05-06 23:50 | 41.10905 | -72.04383 | 17716 ft | 302 kts | 258° |
| 2026-05-06 23:50 | 41.10556 | -72.07126 | 17612 ft | 302 kts | 258° |
| 2026-05-06 23:51 | 41.10324 | -72.08946 | 17535 ft | 301 kts | 258° |
| 2026-05-06 23:51 | 41.09954 | -72.11671 | 17431 ft | 300 kts | 255° |
| 2026-05-06 23:51 | 41.09379 | -72.14328 | 17334 ft | 299 kts | 250° |
| 2026-05-06 23:51 | 41.08720 | -72.16943 | 17223 ft | 298 kts | 250° |
| 2026-05-06 23:52 | 41.08072 | -72.19555 | 17125 ft | 298 kts | 251° |
| 2026-05-06 23:52 | 41.07429 | -72.22160 | 17024 ft | 297 kts | 251° |
| 2026-05-06 23:52 | 41.06786 | -72.24760 | 16920 ft | 297 kts | 251° |
| 2026-05-06 23:52 | 41.06143 | -72.27355 | 16843 ft | 296 kts | 251° |
| 2026-05-06 23:53 | 41.05498 | -72.29953 | 16735 ft | 296 kts | 251° |
| 2026-05-06 23:53 | 41.04855 | -72.32544 | 16564 ft | 296 kts | 251° |
| 2026-05-06 23:53 | 41.04212 | -72.35127 | 16311 ft | 294 kts | 251° |
| 2026-05-06 23:53 | 41.03574 | -72.37689 | 16034 ft | 292 kts | 251° |
| 2026-05-06 23:54 | 41.02937 | -72.40242 | 15784 ft | 291 kts | 251° |
| 2026-05-06 23:54 | 41.02301 | -72.42787 | 15543 ft | 291 kts | 251° |
| 2026-05-06 23:54 | 41.01662 | -72.45343 | 15298 ft | 291 kts | 251° |
| 2026-05-06 23:54 | 41.01028 | -72.47876 | 15053 ft | 288 kts | 251° |
| 2026-05-06 23:55 | 41.00399 | -72.50389 | 14821 ft | 287 kts | 251° |
| 2026-05-06 23:55 | 40.99769 | -72.52900 | 14585 ft | 287 kts | 251° |
| 2026-05-06 23:55 | 40.99142 | -72.55400 | 14349 ft | 286 kts | 251° |
| 2026-05-06 23:55 | 40.98512 | -72.57903 | 14116 ft | 286 kts | 251° |
| 2026-05-06 23:56 | 40.97887 | -72.60392 | 13935 ft | 282 kts | 251° |
| 2026-05-06 23:56 | 40.97278 | -72.62812 | 13855 ft | 271 kts | 251° |
| 2026-05-06 23:56 | 40.96707 | -72.65078 | 13575 ft | 258 kts | 251° |
| 2026-05-06 23:56 | 40.96133 | -72.67355 | 13101 ft | 257 kts | 251° |
| 2026-05-06 23:57 | 40.95575 | -72.69560 | 12668 ft | 256 kts | 251° |
| 2026-05-06 23:57 | 40.95016 | -72.71769 | 12427 ft | 250 kts | 251° |
| 2026-05-06 23:57 | 40.94456 | -72.73980 | 12315 ft | 256 kts | 251° |
| 2026-05-06 23:57 | 40.93891 | -72.76212 | 12194 ft | 255 kts | 251° |
| 2026-05-06 23:58 | 40.93268 | -72.78395 | 12059 ft | 253 kts | 244° |
| 2026-05-06 23:58 | 40.92278 | -72.80312 | 12014 ft | 254 kts | 231° |
| 2026-05-06 23:58 | 40.90937 | -72.81858 | 11888 ft | 258 kts | 220° |
| 2026-05-06 23:58 | 40.89476 | -72.83241 | 11512 ft | 259 kts | 220° |
| 2026-05-06 23:59 | 40.88014 | -72.84634 | 11106 ft | 259 kts | 220° |
| 2026-05-06 23:59 | 40.86554 | -72.86029 | 10702 ft | 258 kts | 221° |
| 2026-05-06 23:59 | 40.85108 | -72.87414 | 10429 ft | 255 kts | 221° |
| 2026-05-06 23:59 | 40.83658 | -72.88804 | 10327 ft | 259 kts | 221° |
| 2026-05-07 00:00 | 40.82205 | -72.90197 | 10212 ft | 258 kts | 221° |
| 2026-05-07 00:00 | 40.80756 | -72.91585 | 10097 ft | 258 kts | 221° |
| 2026-05-07 00:00 | 40.79302 | -72.92978 | 9882 ft | 258 kts | 221° |
| 2026-05-07 00:00 | 40.77847 | -72.94369 | 9634 ft | 256 kts | 221° |
| 2026-05-07 00:01 | 40.76406 | -72.95746 | 9405 ft | 254 kts | 221° |
| 2026-05-07 00:01 | 40.74985 | -72.97109 | 9174 ft | 252 kts | 224° |
| 2026-05-07 00:01 | 40.73923 | -72.98870 | 8857 ft | 245 kts | 248° |
| 2026-05-07 00:01 | 40.73475 | -73.01007 | 8434 ft | 245 kts | 257° |
| 2026-05-07 00:02 | 40.73104 | -73.03197 | 8032 ft | 244 kts | 257° |
| 2026-05-07 00:02 | 40.72729 | -73.05408 | 7774 ft | 246 kts | 257° |
| 2026-05-07 00:02 | 40.72359 | -73.07588 | 7517 ft | 247 kts | 257° |
| 2026-05-07 00:02 | 40.71983 | -73.09786 | 7263 ft | 246 kts | 257° |
| 2026-05-07 00:03 | 40.71606 | -73.11987 | 7020 ft | 245 kts | 257° |
| 2026-05-07 00:03 | 40.71231 | -73.14170 | 6826 ft | 245 kts | 257° |
| 2026-05-07 00:03 | 40.70854 | -73.16368 | 6639 ft | 246 kts | 257° |
| 2026-05-07 00:03 | 40.70477 | -73.18562 | 6415 ft | 245 kts | 257° |
| 2026-05-07 00:04 | 40.70098 | -73.20747 | 6178 ft | 245 kts | 257° |
| 2026-05-07 00:04 | 40.69719 | -73.22930 | 5923 ft | 244 kts | 257° |
| 2026-05-07 00:04 | 40.69338 | -73.25116 | 5663 ft | 244 kts | 257° |
| 2026-05-07 00:04 | 40.68961 | -73.27295 | 5414 ft | 244 kts | 257° |
| 2026-05-07 00:05 | 40.68586 | -73.29458 | 5173 ft | 240 kts | 257° |
| 2026-05-07 00:05 | 40.68217 | -73.31606 | 5029 ft | 241 kts | 257° |
| 2026-05-07 00:05 | 40.67874 | -73.33767 | 5002 ft | 241 kts | 264° |
| 2026-05-07 00:05 | 40.68152 | -73.35934 | 4970 ft | 244 kts | 291° |
| 2026-05-07 00:06 | 40.69168 | -73.37757 | 4687 ft | 250 kts | 307° |
| 2026-05-07 00:06 | 40.70339 | -73.39455 | 4315 ft | 250 kts | 307° |
| 2026-05-07 00:06 | 40.71502 | -73.41137 | 4061 ft | 246 kts | 307° |
| 2026-05-07 00:06 | 40.72671 | -73.42835 | 4001 ft | 251 kts | 307° |
| 2026-05-07 00:07 | 40.73841 | -73.44540 | 3996 ft | 249 kts | 307° |
| 2026-05-07 00:07 | 40.74987 | -73.46204 | 3948 ft | 241 kts | 307° |
| 2026-05-07 00:07 | 40.76091 | -73.47793 | 3871 ft | 231 kts | 307° |
| 2026-05-07 00:07 | 40.77159 | -73.49317 | 3783 ft | 220 kts | 307° |
| 2026-05-07 00:08 | 40.78022 | -73.50863 | 3581 ft | 200 kts | 286° |
| 2026-05-07 00:08 | 40.78192 | -73.52640 | 3180 ft | 196 kts | 268° |
| 2026-05-07 00:08 | 40.78172 | -73.54434 | 2880 ft | 195 kts | 267° |
| 2026-05-07 00:08 | 40.78153 | -73.56226 | 2594 ft | 194 kts | 267° |
| 2026-05-07 00:09 | 40.78139 | -73.57978 | 2293 ft | 193 kts | 267° |
| 2026-05-07 00:09 | 40.78134 | -73.59764 | 2035 ft | 190 kts | 267° |
| 2026-05-07 00:09 | 40.77921 | -73.61429 | 2005 ft | 192 kts | 243° |
| 2026-05-07 00:09 | 40.77206 | -73.62922 | 1999 ft | 192 kts | 237° |
| 2026-05-07 00:10 | 40.76463 | -73.64369 | 1999 ft | 184 kts | 237° |
| 2026-05-07 00:10 | 40.75774 | -73.65716 | 1999 ft | 170 kts | 237° |
| 2026-05-07 00:10 | 40.75100 | -73.66885 | 1992 ft | 157 kts | 229° |
| 2026-05-07 00:10 | 40.74218 | -73.67864 | 2013 ft | 164 kts | 219° |
| 2026-05-07 00:11 | 40.73309 | -73.68593 | 1993 ft | 146 kts | 214° |
| 2026-05-07 00:11 | 40.72434 | -73.69267 | 1833 ft | 143 kts | 216° |
| 2026-05-07 00:11 | 40.71586 | -73.69935 | 1648 ft | 142 kts | 216° |
| 2026-05-07 00:11 | 40.70752 | -73.70589 | 1453 ft | 133 kts | 215° |
| 2026-05-07 00:12 | 40.69997 | -73.71181 | 1289 ft | 119 kts | 216° |
| 2026-05-07 00:12 | 40.69289 | -73.71741 | 1127 ft | 119 kts | 215° |
| 2026-05-07 00:12 | 40.68576 | -73.72300 | 966 ft | 119 kts | 214° |
| 2026-05-07 00:12 | 40.67850 | -73.72871 | 814 ft | 123 kts | 213° |
| 2026-05-07 00:13 | 40.67117 | -73.73446 | 645 ft | 123 kts | 211° |
| 2026-05-07 00:13 | 40.66389 | -73.74019 | 482 ft | 121 kts | 210° |
| 2026-05-07 00:13 | 40.65654 | -73.74599 | 318 ft | 126 kts | 211° |
| 2026-05-07 00:13 | 40.64902 | -73.75188 | 155 ft | 122 kts | 211° |
| 2026-05-07 00:14 | 40.64195 | -73.75743 | 28 ft | 112 kts | 211° |
| 2026-05-07 00:14 | 40.63675 | -73.76150 | 22 ft | 59 kts | 210° |
| 2026-05-07 00:14 | 40.63400 | -73.76371 | 23 ft | 44 kts | 213° |
| 2026-05-07 00:14 | 40.63238 | -73.76653 | 20 ft | 31 kts | 256° |
| 2026-05-07 00:15 | 40.63321 | -73.76903 | 20 ft | 31 kts | 299° |
| 2026-05-07 00:15 | 40.63436 | -73.77152 | 20 ft | 33 kts | 302° |
| 2026-05-07 00:15 | 40.63553 | -73.77412 | 22 ft | 33 kts | 301° |
| 2026-05-07 00:15 | 40.63635 | -73.77583 | 20 ft | 15 kts | 320° |
| 2026-05-07 00:16 | 40.63732 | -73.77532 | 19 ft | 18 kts | 32° |
| 2026-05-07 00:16 | 40.63848 | -73.77441 | 20 ft | 21 kts | 30° |
| 2026-05-07 00:16 | 40.63982 | -73.77337 | 21 ft | 24 kts | 31° |
| 2026-05-07 00:16 | 40.64132 | -73.77218 | 21 ft | 26 kts | 30° |
| 2026-05-07 00:17 | 40.64298 | -73.77088 | 20 ft | 29 kts | 31° |
| 2026-05-07 00:17 | 40.64465 | -73.76988 | 20 ft | 26 kts | 4° |
| 2026-05-07 00:17 | 40.64650 | -73.76989 | 20 ft | 28 kts | 351° |
| 2026-05-07 00:17 | 40.64797 | -73.77146 | 20 ft | 29 kts | 300° |
| 2026-05-07 00:18 | 40.64836 | -73.77308 | 20 ft | 16 kts | 221° |
| 2026-05-07 00:18 | 40.64743 | -73.77376 | 20 ft | 13 kts | 189° |
| 2026-05-07 00:18 | 40.64653 | -73.77354 | 20 ft | 12 kts | 180° |
| 2026-05-07 00:18 | 40.64626 | -73.77355 | 20 ft | 0 kts | 180° |